createdAt,value
2018-07-07T00:00:12.128Z,101412.59
2018-07-07T00:02:39.877Z,101405.19
2018-07-07T00:05:08.219Z,101410.39
2018-07-07T00:07:37.322Z,101409.66
2018-07-07T00:10:05.026Z,101408.81
2018-07-07T00:12:32.758Z,101412.09
2018-07-07T00:15:00.444Z,101410.52
2018-07-07T00:17:28.080Z,101418.20
2018-07-07T00:19:55.833Z,101435.53
2018-07-07T00:22:24.408Z,101417.45
2018-07-07T00:24:52.111Z,101422.56
2018-07-07T00:27:19.852Z,101428.52
2018-07-07T00:29:48.062Z,101435.77
2018-07-07T00:32:15.766Z,101430.75
2018-07-07T00:34:43.454Z,101422.06
2018-07-07T00:37:11.166Z,101428.59
2018-07-07T00:39:38.864Z,101418.91
2018-07-07T00:42:06.658Z,101417.65
2018-07-07T00:44:34.346Z,101414.06
2018-07-07T00:47:02.010Z,101426.60
2018-07-07T00:49:29.702Z,101416.22
2018-07-07T00:51:57.453Z,101422.38
2018-07-07T00:54:25.181Z,101431.45
2018-07-07T00:56:52.858Z,101429.50
2018-07-07T00:59:20.642Z,101426.95
2018-07-07T01:01:48.390Z,101442.34
2018-07-07T01:04:16.405Z,101435.17
2018-07-07T01:06:44.345Z,101444.61
2018-07-07T01:09:12.422Z,101460.98
2018-07-07T01:11:40.125Z,101451.17
2018-07-07T01:14:07.824Z,101442.68
2018-07-07T01:16:35.488Z,101454.22
2018-07-07T01:19:03.275Z,101457.45
2018-07-07T01:21:30.972Z,101451.52
2018-07-07T01:23:58.682Z,101456.28
2018-07-07T01:26:26.457Z,101450.86
2018-07-07T01:28:54.397Z,101448.38
2018-07-07T01:31:22.070Z,101448.19
2018-07-07T01:33:49.710Z,101464.82
2018-07-07T01:36:17.524Z,101455.59
2018-07-07T01:38:45.182Z,101463.59
2018-07-07T01:41:12.849Z,101458.08
2018-07-07T01:43:40.480Z,101464.14
2018-07-07T01:46:08.150Z,101465.44
2018-07-07T01:48:35.828Z,101459.18
2018-07-07T01:51:03.541Z,101462.91
2018-07-07T01:53:31.178Z,101468.10
2018-07-07T01:55:58.856Z,101459.41
2018-07-07T01:58:26.535Z,101467.18
2018-07-07T02:00:54.215Z,101463.42
2018-07-07T02:03:21.891Z,101474.36
2018-07-07T02:05:49.557Z,101474.86
2018-07-07T02:08:17.204Z,101470.22
2018-07-07T02:10:44.885Z,101478.58
2018-07-07T02:13:12.562Z,101480.05
2018-07-07T02:15:40.205Z,101481.80
2018-07-07T02:18:07.932Z,101477.84
2018-07-07T02:20:35.614Z,101475.31
2018-07-07T02:23:03.344Z,101477.80
2018-07-07T02:25:31.019Z,101487.67
2018-07-07T02:27:58.701Z,101491.58
2018-07-07T02:30:26.390Z,101493.98
2018-07-07T02:32:54.034Z,101486.25
2018-07-07T02:35:21.727Z,101487.53
2018-07-07T02:37:49.435Z,101493.04
2018-07-07T02:40:17.112Z,101490.71
2018-07-07T02:42:44.794Z,101493.74
2018-07-07T02:45:12.451Z,101496.55
2018-07-07T02:47:40.114Z,101501.14
2018-07-07T02:50:07.774Z,101494.89
2018-07-07T02:52:35.443Z,101501.09
2018-07-07T02:55:03.170Z,101499.25
2018-07-07T02:57:30.917Z,101486.07
2018-07-07T02:59:58.618Z,101494.43
2018-07-07T03:02:26.301Z,101488.83
2018-07-07T03:04:54.133Z,101506.84
2018-07-07T03:07:21.909Z,101504.31
2018-07-07T03:09:49.596Z,101501.64
2018-07-07T03:12:17.284Z,101508.30
2018-07-07T03:14:44.986Z,101505.78
2018-07-07T03:17:12.659Z,101509.22
2018-07-07T03:19:40.523Z,101509.87
2018-07-07T03:22:08.197Z,101504.49
2018-07-07T03:24:35.874Z,101515.51
2018-07-07T03:27:03.762Z,101500.64
2018-07-07T03:29:31.458Z,101506.38
2018-07-07T03:31:59.119Z,101497.22
2018-07-07T03:34:26.795Z,101504.72
2018-07-07T03:36:54.493Z,101499.98
2018-07-07T03:39:22.181Z,101512.07
2018-07-07T03:41:50.020Z,101502.42
2018-07-07T03:44:17.717Z,101512.94
2018-07-07T03:46:45.384Z,101517.40
2018-07-07T03:49:13.062Z,101521.13
2018-07-07T03:51:40.779Z,101522.01
2018-07-07T03:54:08.471Z,101521.36
2018-07-07T03:56:36.135Z,101522.59
2018-07-07T03:59:03.832Z,101516.40
2018-07-07T04:01:31.550Z,101520.63
2018-07-07T04:03:59.394Z,101295.17
2018-07-07T04:06:27.025Z,101521.64
2018-07-07T04:08:54.704Z,101502.08
2018-07-07T04:11:22.413Z,101512.38
2018-07-07T04:13:50.111Z,101513.35
2018-07-07T04:16:17.783Z,101520.16
2018-07-07T04:18:45.501Z,101517.95
2018-07-07T04:21:13.246Z,101528.69
2018-07-07T04:23:40.901Z,101523.78
2018-07-07T04:26:08.570Z,101539.88
2018-07-07T04:28:36.317Z,101535.52
2018-07-07T04:31:04.091Z,101534.47
2018-07-07T04:33:31.814Z,101521.95
2018-07-07T04:35:59.493Z,101539.80
2018-07-07T04:38:27.168Z,101532.62
2018-07-07T04:40:54.894Z,101531.28
2018-07-07T04:43:22.553Z,101531.98
2018-07-07T04:45:50.259Z,101529.73
2018-07-07T04:48:17.929Z,101533.72
2018-07-07T04:50:45.597Z,101530.25
2018-07-07T04:53:13.267Z,101532.28
2018-07-07T04:55:40.945Z,101531.22
2018-07-07T04:58:08.646Z,101534.05
2018-07-07T05:00:36.317Z,101538.70
2018-07-07T05:03:04.211Z,101533.77
2018-07-07T05:05:31.989Z,101528.19
2018-07-07T05:07:59.664Z,101534.19
2018-07-07T05:10:27.336Z,101531.02
2018-07-07T05:12:55.087Z,101530.26
2018-07-07T05:15:22.744Z,101521.22
2018-07-07T05:17:50.438Z,101527.27
2018-07-07T05:20:18.194Z,101521.23
2018-07-07T05:22:45.911Z,101528.52
2018-07-07T05:25:13.594Z,101522.06
2018-07-07T05:27:41.285Z,101525.25
2018-07-07T05:30:09.049Z,101529.36
2018-07-07T05:32:36.854Z,101520.49
2018-07-07T05:35:04.595Z,101520.86
2018-07-07T05:37:32.312Z,101527.55
2018-07-07T05:40:00.052Z,101509.22
2018-07-07T05:42:27.753Z,101516.85
2018-07-07T05:44:55.449Z,101519.41
2018-07-07T05:47:23.146Z,101516.98
2018-07-07T05:49:50.925Z,101526.81
2018-07-07T05:52:18.642Z,101520.63
2018-07-07T05:54:46.327Z,101529.72
2018-07-07T05:57:14.051Z,101524.27
2018-07-07T05:59:41.765Z,101531.41
2018-07-07T06:02:09.495Z,101530.80
2018-07-07T06:04:37.174Z,101528.63
2018-07-07T06:07:04.928Z,101529.47
2018-07-07T06:09:32.625Z,101525.59
2018-07-07T06:12:00.326Z,101529.23
2018-07-07T06:14:28.101Z,101529.59
2018-07-07T06:16:55.802Z,101541.39
2018-07-07T06:19:23.488Z,101536.64
2018-07-07T06:21:51.179Z,101546.73
2018-07-07T06:24:18.860Z,101547.33
2018-07-07T06:26:46.614Z,101550.97
2018-07-07T06:29:14.365Z,101553.64
2018-07-07T06:31:42.063Z,101548.55
2018-07-07T06:34:09.721Z,101544.30
2018-07-07T06:36:37.453Z,101541.98
2018-07-07T06:39:05.896Z,101548.05
2018-07-07T06:41:33.599Z,101548.05
2018-07-07T06:44:01.317Z,101545.41
2018-07-07T06:46:29.022Z,101546.00
2018-07-07T06:48:56.865Z,101569.80
2018-07-07T06:51:24.588Z,101553.17
2018-07-07T06:53:52.328Z,101552.20
2018-07-07T06:56:20.046Z,101550.12
2018-07-07T06:58:47.741Z,101551.82
2018-07-07T07:01:15.430Z,101552.67
2018-07-07T07:03:43.117Z,101547.57
2018-07-07T07:06:10.828Z,101548.05
2018-07-07T07:08:38.491Z,101556.31
2018-07-07T07:11:06.221Z,101554.73
2018-07-07T07:13:33.884Z,101549.52
2018-07-07T07:16:01.568Z,101563.25
2018-07-07T07:18:29.231Z,101549.05
2018-07-07T07:20:56.901Z,101551.72
2018-07-07T07:23:24.594Z,101566.66
2018-07-07T07:25:52.626Z,101547.59
2018-07-07T07:28:20.325Z,101546.72
2018-07-07T07:30:48.018Z,101562.75
2018-07-07T07:33:16.625Z,101557.88
2018-07-07T07:35:44.356Z,101561.19
2018-07-07T07:38:12.106Z,101572.00
2018-07-07T07:40:39.787Z,101556.09
2018-07-07T07:43:07.697Z,101560.94
2018-07-07T07:45:35.565Z,101548.69
2018-07-07T07:48:03.285Z,101550.01
2018-07-07T07:50:30.944Z,101545.00
2018-07-07T07:52:58.644Z,101552.05
2018-07-07T07:55:26.332Z,101553.76
2018-07-07T07:57:54.028Z,101555.34
2018-07-07T08:00:21.907Z,101559.75
2018-07-07T08:02:49.584Z,101565.17
2018-07-07T08:05:17.239Z,101560.59
2018-07-07T08:07:44.903Z,101555.09
2018-07-07T08:10:12.609Z,101554.84
2018-07-07T08:12:40.283Z,101572.35
2018-07-07T08:15:08.140Z,101558.27
2018-07-07T08:17:35.816Z,101563.25
2018-07-07T08:20:03.543Z,101561.66
2018-07-07T08:22:31.244Z,101553.75
2018-07-07T08:24:58.931Z,101560.19
2018-07-07T08:27:26.609Z,101549.50
2018-07-07T08:29:54.284Z,101548.23
2018-07-07T08:32:21.975Z,101547.00
2018-07-07T08:34:49.652Z,101552.81
2018-07-07T08:37:17.322Z,101569.16
2018-07-07T08:39:44.981Z,101559.94
2018-07-07T08:42:12.729Z,101561.24
2018-07-07T08:44:40.417Z,101550.61
2018-07-07T08:47:08.109Z,101560.58
2018-07-07T08:49:35.767Z,101548.55
2018-07-07T08:52:03.482Z,101546.73
2018-07-07T08:54:31.134Z,101531.24
2018-07-07T08:56:58.802Z,101559.09
2018-07-07T08:59:26.640Z,101552.59
2018-07-07T09:01:54.297Z,101558.27
2018-07-07T09:04:21.981Z,101556.05
2018-07-07T09:06:49.693Z,101551.16
2018-07-07T09:09:17.370Z,101552.84
2018-07-07T09:11:45.148Z,101544.81
2018-07-07T09:14:12.859Z,101539.75
2018-07-07T09:16:40.597Z,101547.77
2018-07-07T09:19:08.248Z,101543.16
2018-07-07T09:21:35.935Z,101539.39
2018-07-07T09:24:03.600Z,101554.12
2018-07-07T09:26:31.275Z,101543.95
2018-07-07T09:28:58.951Z,101554.80
2018-07-07T09:31:26.626Z,101539.83
2018-07-07T09:33:54.294Z,101559.28
2018-07-07T09:36:21.967Z,101540.84
2018-07-07T09:38:49.794Z,101549.08
2018-07-07T09:41:17.485Z,101543.78
2018-07-07T09:43:45.138Z,101545.48
2018-07-07T09:46:12.800Z,101544.23
2018-07-07T09:48:40.451Z,101546.39
2018-07-07T09:51:08.118Z,101541.56
2018-07-07T09:53:35.779Z,101536.20
2018-07-07T09:56:03.544Z,101539.28
2018-07-07T09:58:31.252Z,101532.95
2018-07-07T10:00:58.893Z,101531.61
2018-07-07T10:03:26.561Z,101537.41
2018-07-07T10:05:54.234Z,101526.76
2018-07-07T10:08:21.898Z,101529.80
2018-07-07T10:10:49.561Z,101530.06
2018-07-07T10:13:17.258Z,101535.94
2018-07-07T10:15:44.918Z,101528.37
2018-07-07T10:18:12.574Z,101519.44
2018-07-07T10:20:40.330Z,101532.75
2018-07-07T10:23:07.991Z,101539.53
2018-07-07T10:25:35.672Z,101534.63
2018-07-07T10:28:03.340Z,101530.95
2018-07-07T10:30:31.000Z,101521.77
2018-07-07T10:32:58.674Z,101517.91
2018-07-07T10:35:26.519Z,101537.36
2018-07-07T10:37:54.204Z,101536.20
2018-07-07T10:40:21.954Z,101522.93
2018-07-07T10:42:49.632Z,101532.03
2018-07-07T10:45:17.313Z,101529.77
2018-07-07T10:47:45.013Z,101529.50
2018-07-07T10:50:12.755Z,101522.77
2018-07-07T10:52:40.430Z,101520.26
2018-07-07T10:55:08.115Z,101535.44
2018-07-07T10:57:35.800Z,101542.90
2018-07-07T11:00:04.339Z,101540.02
2018-07-07T11:02:32.097Z,101533.31
2018-07-07T11:04:59.766Z,101522.14
2018-07-07T11:07:27.513Z,101540.53
2018-07-07T11:09:55.153Z,101545.87
2018-07-07T11:12:22.819Z,101539.30
2018-07-07T11:14:50.485Z,101537.68
2018-07-07T11:17:18.181Z,101538.56
2018-07-07T11:19:45.843Z,101547.80
2018-07-07T11:22:13.501Z,101537.48
2018-07-07T11:24:41.166Z,101544.89
2018-07-07T11:27:08.870Z,101540.33
2018-07-07T11:29:36.548Z,101525.78
2018-07-07T11:32:04.207Z,101530.60
2018-07-07T11:34:31.886Z,101526.94
2018-07-07T11:36:59.613Z,101533.88
2018-07-07T11:39:27.454Z,101523.90
2018-07-07T11:41:55.209Z,101530.01
2018-07-07T11:44:22.882Z,101525.36
2018-07-07T11:46:50.567Z,101527.17
2018-07-07T11:49:18.238Z,101527.88
2018-07-07T11:51:45.946Z,101528.87
2018-07-07T11:54:13.853Z,101541.01
2018-07-07T11:56:41.513Z,101519.56
2018-07-07T11:59:09.180Z,101526.97
2018-07-07T12:01:38.138Z,101533.12
2018-07-07T12:04:05.882Z,101536.44
2018-07-07T12:06:33.600Z,101534.94
2018-07-07T12:09:01.270Z,101493.50
2018-07-07T12:11:29.069Z,101538.60
2018-07-07T12:13:56.738Z,101544.87
2018-07-07T12:16:24.428Z,101541.20
2018-07-07T12:18:52.083Z,101543.97
2018-07-07T12:21:19.774Z,101539.20
2018-07-07T12:23:47.483Z,101547.72
2018-07-07T12:26:15.188Z,101548.42
2018-07-07T12:28:42.897Z,101536.44
2018-07-07T12:31:10.649Z,101547.28
2018-07-07T12:33:38.380Z,101554.84
2018-07-07T12:36:06.200Z,101543.14
2018-07-07T12:38:33.878Z,101538.60
2018-07-07T12:41:01.748Z,101548.23
2018-07-07T12:43:29.399Z,101529.02
2018-07-07T12:45:57.132Z,101558.63
2018-07-07T12:48:24.785Z,101546.45
2018-07-07T12:50:52.488Z,101553.12
2018-07-07T12:53:20.228Z,101548.11
2018-07-07T12:55:47.968Z,101545.55
2018-07-07T12:58:15.810Z,101561.00
2018-07-07T13:00:43.532Z,101562.63
2018-07-07T13:03:11.231Z,101562.23
2018-07-07T13:05:38.940Z,101566.68
2018-07-07T13:08:06.660Z,101549.73
2018-07-07T13:10:34.408Z,101561.52
2018-07-07T13:13:02.132Z,101552.80
2018-07-07T13:15:29.851Z,101554.18
2018-07-07T13:17:57.562Z,101558.00
2018-07-07T13:20:25.248Z,101567.67
2018-07-07T13:22:53.030Z,101560.18
2018-07-07T13:25:20.741Z,101556.22
2018-07-07T13:27:48.634Z,101557.28
2018-07-07T13:30:16.321Z,101562.41
2018-07-07T13:32:43.974Z,101544.68
2018-07-07T13:35:11.659Z,101562.14
2018-07-07T13:37:39.375Z,101552.59
2018-07-07T13:40:07.182Z,101554.11
2018-07-07T13:42:34.913Z,101563.30
2018-07-07T13:45:02.663Z,101556.52
2018-07-07T13:47:30.364Z,101567.38
2018-07-07T13:49:58.042Z,101556.92
2018-07-07T13:52:25.804Z,101527.34
2018-07-07T13:54:53.634Z,101563.98
2018-07-07T13:57:21.364Z,101574.20
2018-07-07T13:59:49.026Z,101566.75
2018-07-07T14:02:16.899Z,101567.12
2018-07-07T14:04:44.605Z,101569.52
2018-07-07T14:07:12.269Z,101577.21
2018-07-07T14:09:39.966Z,101577.42
2018-07-07T14:12:07.662Z,101563.64
2018-07-07T14:14:35.373Z,101569.52
2018-07-07T14:17:03.141Z,101568.30
2018-07-07T14:19:30.808Z,101575.94
2018-07-07T14:21:58.582Z,101581.66
2018-07-07T14:24:26.243Z,101579.97
2018-07-07T14:26:53.942Z,101566.41
2018-07-07T14:29:21.637Z,101580.95
2018-07-07T14:31:49.358Z,101577.00
2018-07-07T14:34:17.034Z,101586.61
2018-07-07T14:36:44.712Z,101585.14
2018-07-07T14:39:12.390Z,101593.75
2018-07-07T14:41:40.100Z,101584.33
2018-07-07T14:44:07.800Z,101576.73
2018-07-07T14:46:35.770Z,101595.58
2018-07-07T14:49:03.589Z,101589.47
2018-07-07T14:51:31.294Z,101588.89
2018-07-07T14:53:58.991Z,101584.05
2018-07-07T14:56:27.478Z,101586.32
2018-07-07T14:58:55.144Z,101601.02
2018-07-07T15:01:22.880Z,101600.36
2018-07-07T15:03:50.572Z,101601.72
2018-07-07T15:06:18.237Z,101590.30
2018-07-07T15:08:45.925Z,101597.84
2018-07-07T15:11:13.653Z,101588.16
2018-07-07T15:13:41.341Z,101586.45
2018-07-07T15:16:09.104Z,101592.33
2018-07-07T15:18:36.879Z,101599.33
2018-07-07T15:21:04.733Z,101600.86
2018-07-07T15:23:32.704Z,101590.13
2018-07-07T15:26:00.639Z,101593.67
2018-07-07T15:28:28.351Z,101596.49
2018-07-07T15:30:56.100Z,101596.28
2018-07-07T15:33:23.767Z,101601.50
2018-07-07T15:35:51.460Z,101603.92
2018-07-07T15:38:19.145Z,101611.67
2018-07-07T15:40:46.858Z,101606.80
2018-07-07T15:43:14.552Z,101608.02
2018-07-07T15:45:42.226Z,101616.89
2018-07-07T15:48:09.922Z,101614.98
2018-07-07T15:50:37.621Z,101610.48
2018-07-07T15:53:05.279Z,101625.89
2018-07-07T15:55:32.973Z,101630.98
2018-07-07T15:58:00.668Z,101615.71
2018-07-07T16:00:28.349Z,101616.80
2018-07-07T16:02:56.399Z,101619.00
2018-07-07T16:05:24.151Z,101620.73
2018-07-07T16:07:51.957Z,101611.83
2018-07-07T16:10:19.629Z,101618.31
2018-07-07T16:12:47.309Z,101620.72
2018-07-07T16:15:14.985Z,101620.88
2018-07-07T16:17:42.673Z,101618.19
2018-07-07T16:20:10.352Z,101617.91
2018-07-07T16:22:38.043Z,101616.63
2018-07-07T16:25:05.722Z,101620.30
2018-07-07T16:27:33.386Z,101615.30
2018-07-07T16:30:01.071Z,101624.05
2018-07-07T16:32:28.715Z,101624.25
2018-07-07T16:34:56.415Z,101617.77
2018-07-07T16:37:24.098Z,101623.83
2018-07-07T16:39:51.886Z,101637.41
2018-07-07T16:42:20.620Z,101638.47
2018-07-07T16:44:48.385Z,101634.02
2018-07-07T16:47:16.198Z,101633.95
2018-07-07T16:49:44.036Z,101647.49
2018-07-07T16:52:11.833Z,101634.30
2018-07-07T16:54:41.888Z,101638.33
2018-07-07T16:57:11.382Z,101640.86
2018-07-07T16:59:39.187Z,101650.10
2018-07-07T17:02:07.224Z,101636.68
2018-07-07T17:04:35.054Z,101638.89
2018-07-07T17:07:02.797Z,101640.94
2018-07-07T17:09:31.691Z,101635.92
2018-07-07T17:11:59.479Z,101633.72
2018-07-07T17:14:27.316Z,101642.07
2018-07-07T17:16:55.077Z,101631.38
2018-07-07T17:19:22.825Z,101647.02
2018-07-07T17:21:50.652Z,101639.87
2018-07-07T17:24:18.477Z,101638.62
2018-07-07T17:26:46.669Z,101641.43
2018-07-07T17:29:14.461Z,101646.30
2018-07-07T17:31:42.571Z,101648.06
2018-07-07T17:34:11.010Z,101642.20
2018-07-07T17:36:38.789Z,101647.79
2018-07-07T17:39:06.558Z,101654.70
2018-07-07T17:41:34.921Z,101605.50
2018-07-07T17:44:02.792Z,101661.26
2018-07-07T17:46:30.561Z,101657.94
2018-07-07T17:48:59.226Z,101666.98
2018-07-07T17:51:27.838Z,101658.05
2018-07-07T17:53:56.835Z,101664.69
2018-07-07T17:56:24.757Z,101666.58
2018-07-07T17:58:52.542Z,101669.46
2018-07-07T18:01:20.337Z,101660.14
2018-07-07T18:03:48.465Z,101661.61
2018-07-07T18:06:16.136Z,101667.48
2018-07-07T18:08:43.813Z,101668.70
2018-07-07T18:11:11.528Z,101660.81
2018-07-07T18:13:39.258Z,101666.66
2018-07-07T18:16:06.944Z,101672.61
2018-07-07T18:18:34.654Z,101663.93
2018-07-07T18:21:02.372Z,101673.00
2018-07-07T18:23:30.054Z,101676.75
2018-07-07T18:25:57.729Z,101671.84
2018-07-07T18:28:25.407Z,101672.47
2018-07-07T18:30:53.148Z,101667.62
2018-07-07T18:33:20.890Z,101663.71
2018-07-07T18:35:48.598Z,101679.72
2018-07-07T18:38:16.455Z,101679.80
2018-07-07T18:40:44.073Z,101684.25
2018-07-07T18:43:11.783Z,101692.30
2018-07-07T18:45:39.471Z,101686.81
2018-07-07T18:48:07.196Z,101685.11
2018-07-07T18:50:34.862Z,101694.67
2018-07-07T18:53:02.546Z,101701.70
2018-07-07T18:55:30.231Z,101700.37
2018-07-07T18:57:57.920Z,101704.95
2018-07-07T19:00:25.590Z,101699.12
2018-07-07T19:02:53.301Z,101706.54
2018-07-07T19:05:20.953Z,101698.49
2018-07-07T19:07:48.618Z,101702.27
2018-07-07T19:10:16.309Z,101717.78
2018-07-07T19:12:44.009Z,101713.38
2018-07-07T19:15:17.175Z,101715.70
2018-07-07T19:17:44.855Z,101727.88
2018-07-07T19:20:17.058Z,101720.92
2018-07-07T19:22:50.230Z,101716.91
2018-07-07T19:25:23.481Z,101717.16
2018-07-07T19:27:51.170Z,101724.10
2018-07-07T19:30:18.847Z,101732.75
2018-07-07T19:32:52.038Z,101727.77
2018-07-07T19:35:25.274Z,101730.11
2018-07-07T19:37:52.986Z,101728.00
2018-07-07T19:40:20.670Z,101728.72
2018-07-07T19:42:49.160Z,101723.74
2018-07-07T19:45:16.890Z,101735.92
2018-07-07T19:47:44.592Z,101732.34
2018-07-07T19:50:12.290Z,101732.43
2018-07-07T19:52:39.976Z,101736.76
2018-07-07T19:55:07.752Z,101735.56
2018-07-07T19:57:35.429Z,101735.39
2018-07-07T20:00:03.214Z,101735.39
2018-07-07T20:02:30.908Z,101736.39
2018-07-07T20:04:58.582Z,101736.71
2018-07-07T20:07:26.229Z,101738.45
2018-07-07T20:09:53.900Z,101744.19
2018-07-07T20:12:21.569Z,101747.84
2018-07-07T20:14:49.222Z,101740.80
2018-07-07T20:18:33.515Z,101737.65
2018-07-07T20:21:17.917Z,101742.39
2018-07-07T20:23:45.620Z,101742.80
2018-07-07T20:26:13.295Z,101740.48
2018-07-07T20:28:46.374Z,101747.91
2018-07-07T20:31:14.039Z,101746.67
2018-07-07T20:33:41.736Z,101744.65
2018-07-07T20:36:09.386Z,101748.09
2018-07-07T20:38:37.042Z,101756.08
2018-07-07T20:41:04.749Z,101755.97
2018-07-07T20:43:32.427Z,101761.47
2018-07-07T20:46:00.079Z,101762.19
2018-07-07T20:48:27.768Z,101764.25
2018-07-07T20:50:55.420Z,101759.89
2018-07-07T20:53:26.248Z,101770.11
2018-07-07T20:55:53.979Z,101783.38
2018-07-07T20:58:21.698Z,101781.93
2018-07-07T21:00:49.403Z,101775.09
2018-07-07T21:03:17.053Z,101782.16
2018-07-07T21:05:44.750Z,101790.20
2018-07-07T21:08:12.435Z,101789.92
2018-07-07T21:10:40.090Z,101783.62
2018-07-07T21:13:07.803Z,101790.55
2018-07-07T21:15:35.501Z,101796.25
2018-07-07T21:18:03.856Z,101787.02
2018-07-07T21:20:31.540Z,101795.30
2018-07-07T21:22:59.214Z,101798.08
2018-07-07T21:25:26.941Z,101799.03
2018-07-07T21:27:54.596Z,101803.28
2018-07-07T21:30:22.341Z,101808.02
2018-07-07T21:32:50.008Z,101812.39
2018-07-07T21:35:17.735Z,101815.27
2018-07-07T21:37:45.410Z,101812.86
2018-07-07T21:40:13.127Z,101813.56
2018-07-07T21:42:40.814Z,101818.02
2018-07-07T21:45:08.621Z,101819.82
2018-07-07T21:47:36.288Z,101827.94
2018-07-07T21:50:04.206Z,101828.64
2018-07-07T21:52:31.873Z,101826.58
2018-07-07T21:54:59.548Z,101833.58
2018-07-07T21:57:32.730Z,101838.00
2018-07-07T22:00:00.418Z,101832.81
2018-07-07T22:02:33.636Z,101840.73
2018-07-07T22:05:06.817Z,101850.41
2018-07-07T22:07:40.686Z,101846.48
2018-07-07T22:10:08.404Z,101849.16
2018-07-07T22:12:36.104Z,101846.62
2018-07-07T22:15:03.930Z,101848.65
2018-07-07T22:17:31.601Z,101844.45
2018-07-07T22:19:59.333Z,101857.36
2018-07-07T22:22:26.990Z,101859.70
2018-07-07T22:24:54.637Z,101853.05
2018-07-07T22:27:22.295Z,101850.28
2018-07-07T22:29:49.945Z,101854.67
2018-07-07T22:32:21.857Z,101853.20
2018-07-07T22:34:49.715Z,101868.60
2018-07-07T22:37:17.469Z,101864.08
2018-07-07T22:39:45.646Z,101863.71
2018-07-07T22:42:14.661Z,101862.45
2018-07-07T22:44:43.295Z,101860.89
2018-07-07T22:47:11.117Z,101861.19
2018-07-07T22:49:38.862Z,101867.56
2018-07-07T22:52:07.543Z,101864.20
2018-07-07T22:54:35.292Z,101865.41
2018-07-07T22:57:02.994Z,101824.47
2018-07-07T22:59:30.801Z,101876.74
2018-07-07T23:01:58.510Z,101865.23
2018-07-07T23:04:26.225Z,101865.17
2018-07-07T23:06:53.899Z,101873.70
2018-07-07T23:09:21.622Z,101875.70
2018-07-07T23:11:49.327Z,101873.39
2018-07-07T23:14:17.017Z,101879.93
2018-07-07T23:16:44.675Z,101879.38
2018-07-07T23:19:12.333Z,101881.09
2018-07-07T23:21:40.098Z,101881.50
2018-07-07T23:24:07.794Z,101890.16
2018-07-07T23:26:35.503Z,101877.79
2018-07-07T23:29:04.074Z,101887.80
2018-07-07T23:31:31.849Z,101886.81
2018-07-07T23:33:59.544Z,101887.61
2018-07-07T23:36:27.485Z,101886.87
2018-07-07T23:38:55.202Z,101885.16
2018-07-07T23:41:23.005Z,101885.27
2018-07-07T23:43:50.772Z,101895.53
2018-07-07T23:46:18.374Z,101886.34
2018-07-07T23:48:46.144Z,101880.50
2018-07-07T23:51:13.922Z,101884.97
2018-07-07T23:53:41.590Z,101886.71
2018-07-07T23:56:09.426Z,101887.58
2018-07-07T23:58:37.420Z,101876.50
